Time,TemperatureF,DewpointF,PressureIn,WindDirection,WindDirectionDegrees,WindSpeedMPH,WindSpeedGustMPH,Humidity,HourlyPrecipIn,Conditions,Clouds,dailyrainin,SoftwareType,DateUTC
2013-04-28 01:33:00,-999.0,-99.9,-100.00,NNE,25,2.0,3.0,41,-99.99,,,-99.99,,2013-04-28 05:33:00,
2013-04-28 02:13:00,-999.0,-99.9,-100.00,NNW,340,0.0,1.0,45,-99.99,,,-99.99,,2013-04-28 06:13:00,
2013-04-28 02:22:00,-999.0,-99.9,-100.00,NNW,340,0.0,2.0,36,-99.99,,,-99.99,,2013-04-28 06:22:00,
2013-04-28 03:02:00,-999.0,-99.9,-100.00,NNW,340,1.0,2.0,45,-99.99,,,-99.99,,2013-04-28 07:02:00,
2013-04-28 03:22:00,-999.0,-99.9,-100.00,NNW,340,0.0,1.0,41,-99.99,,,-99.99,,2013-04-28 07:22:00,
2013-04-28 03:32:00,-999.0,-99.9,-100.00,WNW,285,2.0,2.0,38,-99.99,,,-99.99,,2013-04-28 07:32:00,
2013-04-28 03:42:00,-999.0,-99.9,-100.00,ENE,65,1.0,2.0,43,-99.99,,,-99.99,,2013-04-28 07:42:00,
2013-04-28 03:52:00,-999.0,-99.9,-100.00,NNE,25,1.0,4.0,48,-99.99,,,-99.99,,2013-04-28 07:52:00,
2013-04-28 04:12:00,-999.0,-99.9,-100.00,NNW,340,0.0,1.0,38,-99.99,,,-99.99,,2013-04-28 08:12:00,
2013-04-28 04:22:00,-999.0,-99.9,-100.00,NNW,340,0.0,1.0,39,-99.99,,,-99.99,,2013-04-28 08:22:00,
2013-04-28 05:33:00,-999.0,-99.9,-100.00,NNE,25,1.0,1.0,39,-99.99,,,-99.99,,2013-04-28 09:33:00,
2013-04-28 05:53:00,-999.0,-99.9,-100.00,NNE,25,0.0,4.0,39,-99.99,,,-99.99,,2013-04-28 09:53:00,
2013-04-28 06:23:00,-999.0,-99.9,-100.00,NNW,340,0.0,4.0,36,-99.99,,,-99.99,,2013-04-28 10:23:00,
2013-04-28 06:42:00,-999.0,-99.9,-100.00,WSW,240,4.0,4.0,45,-99.99,,,-99.99,,2013-04-28 10:42:00,
2013-04-28 06:53:00,-999.0,-99.9,-100.00,West,275,1.0,4.0,42,-99.99,,,-99.99,,2013-04-28 10:53:00,
2013-04-28 07:42:00,-999.0,-99.9,-100.00,North,0,2.0,3.0,45,-99.99,,,-99.99,,2013-04-28 11:42:00,
2013-04-28 07:52:00,-999.0,-99.9,-100.00,NW,315,0.0,2.0,48,-99.99,,,-99.99,,2013-04-28 11:52:00,
2013-04-28 08:22:00,-999.0,-99.9,-100.00,NNW,335,5.0,7.0,38,-99.99,,,-99.99,,2013-04-28 12:22:00,
2013-04-28 09:02:00,-999.0,-99.9,-100.00,West,275,1.0,5.0,36,-99.99,,,-99.99,,2013-04-28 13:02:00,
2013-04-28 09:11:00,-999.0,-99.9,-100.00,North,0,4.0,5.0,41,-99.99,,,-99.99,,2013-04-28 13:11:00,
2013-04-28 09:22:00,-999.0,-99.9,-100.00,NNE,25,1.0,4.0,45,-99.99,,,-99.99,,2013-04-28 13:22:00,
2013-04-28 09:32:00,-999.0,-99.9,-100.00,WNW,295,1.0,4.0,36,-99.99,,,-99.99,,2013-04-28 13:32:00,
2013-04-28 09:42:00,-999.0,-99.9,-100.00,NW,315,0.0,4.0,41,-99.99,,,-99.99,,2013-04-28 13:42:00,
2013-04-28 09:52:00,-999.0,-99.9,-100.00,North,0,2.0,4.0,38,-99.99,,,-99.99,,2013-04-28 13:52:00,
2013-04-28 10:02:00,-999.0,-99.9,-100.00,NW,315,1.0,4.0,38,-99.99,,,-99.99,,2013-04-28 14:02:00,
2013-04-28 10:11:00,-999.0,-99.9,-100.00,NNE,25,3.0,6.0,43,-99.99,,,-99.99,,2013-04-28 14:11:00,
2013-04-28 10:22:00,-999.0,-99.9,-100.00,North,0,4.0,9.0,36,-99.99,,,-99.99,,2013-04-28 14:22:00,
2013-04-28 11:02:00,-999.0,-99.9,-100.00,North,0,2.0,6.0,41,-99.99,,,-99.99,,2013-04-28 15:02:00,
2013-04-28 11:12:00,-999.0,-99.9,-100.00,WNW,295,0.0,4.0,41,-99.99,,,-99.99,,2013-04-28 15:12:00,
2013-04-28 11:22:00,-999.0,-99.9,-100.00,NNW,335,0.0,3.0,39,-99.99,,,-99.99,,2013-04-28 15:22:00,
2013-04-28 11:33:00,-999.0,-99.9,-100.00,NNW,335,0.0,3.0,39,-99.99,,,-99.99,,2013-04-28 15:33:00,
2013-04-28 11:43:00,-999.0,-99.9,-100.00,North,0,1.0,5.0,39,-99.99,,,-99.99,,2013-04-28 15:43:00,
2013-04-28 11:53:00,-999.0,-99.9,-100.00,North,0,2.0,4.0,45,-99.99,,,-99.99,,2013-04-28 15:53:00,
2013-04-28 12:03:00,-999.0,-99.9,-100.00,West,275,0.0,2.0,42,-99.99,,,-99.99,,2013-04-28 16:03:00,
2013-04-28 12:23:00,-999.0,-99.9,-100.00,NNE,20,1.0,3.0,38,-99.99,,,-99.99,,2013-04-28 16:23:00,
2013-04-28 12:43:00,-999.0,-99.9,-100.00,East,95,3.0,5.0,43,-99.99,,,-99.99,,2013-04-28 16:43:00,
2013-04-28 12:53:00,-999.0,-99.9,-100.00,NW,315,0.0,4.0,39,-99.99,,,-99.99,,2013-04-28 16:53:00,
2013-04-28 13:22:00,-999.0,-99.9,-100.00,NE,50,4.0,8.0,41,-99.99,,,-99.99,,2013-04-28 17:22:00,
2013-04-28 14:02:00,-999.0,-99.9,-100.00,NNE,25,2.0,4.0,38,-99.99,,,-99.99,,2013-04-28 18:02:00,
2013-04-28 14:12:00,-999.0,-99.9,-100.00,SW,225,3.0,6.0,39,-99.99,,,-99.99,,2013-04-28 18:12:00,
2013-04-28 14:23:00,-999.0,-99.9,-100.00,ENE,70,4.0,6.0,39,-99.99,,,-99.99,,2013-04-28 18:23:00,
2013-04-28 15:32:00,-999.0,-99.9,-100.00,West,275,1.0,5.0,45,-99.99,,,-99.99,,2013-04-28 19:32:00,
2013-04-28 15:42:00,-999.0,-99.9,-100.00,West,275,1.0,4.0,45,-99.99,,,-99.99,,2013-04-28 19:42:00,